createdAt,value
2018-01-21T00:01:58.807Z,72.27
2018-01-21T00:04:26.337Z,72.46
2018-01-21T00:06:53.860Z,72.26
2018-01-21T00:09:21.322Z,72.52
2018-01-21T00:11:48.807Z,72.65
2018-01-21T00:14:16.346Z,72.46
2018-01-21T00:16:43.867Z,72.40
2018-01-21T00:19:11.532Z,72.42
2018-01-21T00:21:38.999Z,72.48
2018-01-21T00:24:06.569Z,72.60
2018-01-21T00:26:34.058Z,72.76
2018-01-21T00:29:01.550Z,72.85
2018-01-21T00:31:29.967Z,72.97
2018-01-21T00:33:57.577Z,72.96
2018-01-21T00:36:25.036Z,72.89
2018-01-21T00:38:52.678Z,72.79
2018-01-21T00:41:20.170Z,72.82
2018-01-21T00:43:47.695Z,73.01
2018-01-21T00:46:15.295Z,73.13
2018-01-21T00:48:42.775Z,73.23
2018-01-21T00:51:11.016Z,73.48
2018-01-21T00:53:38.489Z,73.66
2018-01-21T00:56:06.027Z,73.54
2018-01-21T00:58:33.507Z,73.40
2018-01-21T01:01:01.007Z,73.38
2018-01-21T01:03:28.555Z,73.53
2018-01-21T01:05:56.020Z,73.50
2018-01-21T01:08:23.498Z,73.93
2018-01-21T01:10:50.971Z,73.83
2018-01-21T01:13:18.488Z,73.85
2018-01-21T01:15:45.940Z,73.81
2018-01-21T01:18:13.407Z,73.82
2018-01-21T01:20:40.864Z,73.88
2018-01-21T01:23:08.333Z,73.87
2018-01-21T01:25:35.853Z,74.02
2018-01-21T01:28:03.298Z,74.22
2018-01-21T01:30:30.778Z,74.33
2018-01-21T01:32:58.307Z,74.46
2018-01-21T01:35:25.930Z,74.50
2018-01-21T01:37:53.430Z,74.58
2018-01-21T01:40:20.955Z,74.47
2018-01-21T01:42:48.469Z,74.28
2018-01-21T01:45:15.919Z,74.24
2018-01-21T01:47:43.460Z,74.11
2018-01-21T01:50:10.991Z,74.23
2018-01-21T01:52:38.583Z,74.26
2018-01-21T01:55:06.079Z,74.41
2018-01-21T01:57:33.558Z,74.26
2018-01-21T02:00:01.007Z,74.20
2018-01-21T02:02:29.395Z,74.09
2018-01-21T02:04:56.904Z,74.27
2018-01-21T02:07:24.347Z,74.14
2018-01-21T02:09:51.945Z,74.45
2018-01-21T02:12:19.425Z,74.37
2018-01-21T02:14:46.890Z,74.42
2018-01-21T02:17:14.333Z,74.74
2018-01-21T02:19:42.282Z,74.83
2018-01-21T02:22:16.958Z,74.99
2018-01-21T02:24:45.090Z,75.42
2018-01-21T02:27:12.576Z,75.64
2018-01-21T02:29:40.182Z,75.87
2018-01-21T02:32:07.716Z,75.89
2018-01-21T02:34:35.327Z,75.77
2018-01-21T02:37:04.285Z,75.86
2018-01-21T02:39:31.814Z,76.18
2018-01-21T02:41:59.385Z,76.24
2018-01-21T02:44:26.887Z,76.49
2018-01-21T02:46:54.361Z,76.82
2018-01-21T02:49:21.894Z,76.83
2018-01-21T02:51:49.355Z,76.95
2018-01-21T02:54:16.817Z,76.93
2018-01-21T02:56:44.286Z,76.90
2018-01-21T02:59:11.751Z,77.24
2018-01-21T03:01:39.226Z,77.40
2018-01-21T03:04:06.674Z,77.27
2018-01-21T03:06:34.142Z,77.35
2018-01-21T03:09:01.686Z,77.36
2018-01-21T03:11:29.174Z,77.28
2018-01-21T03:13:56.636Z,77.37
2018-01-21T03:16:24.127Z,77.40
2018-01-21T03:18:51.599Z,77.44
2018-01-21T03:21:19.078Z,77.53
2018-01-21T03:23:46.538Z,77.57
2018-01-21T03:26:13.990Z,78.00
2018-01-21T03:28:42.298Z,77.85
2018-01-21T03:31:10.008Z,77.63
2018-01-21T03:33:37.486Z,77.42
2018-01-21T03:36:04.963Z,77.32
2018-01-21T03:38:32.581Z,77.50
2018-01-21T03:41:00.064Z,77.82
2018-01-21T03:43:27.573Z,78.08
2018-01-21T03:45:55.062Z,78.16
2018-01-21T03:48:23.555Z,78.29
2018-01-21T03:50:52.793Z,78.11
2018-01-21T03:53:20.256Z,78.34
2018-01-21T03:55:47.752Z,78.53
2018-01-21T03:58:15.793Z,78.56
2018-01-21T04:00:43.288Z,78.85
2018-01-21T04:03:10.745Z,78.81
2018-01-21T04:05:38.247Z,78.41
2018-01-21T04:08:05.740Z,78.84
2018-01-21T04:10:33.182Z,79.13
2018-01-21T04:13:00.666Z,79.28
2018-01-21T04:15:28.158Z,79.34
2018-01-21T04:17:55.610Z,79.49
2018-01-21T04:20:23.219Z,79.64
2018-01-21T04:22:50.679Z,79.43
2018-01-21T04:25:18.159Z,79.73
2018-01-21T04:27:45.617Z,79.89
2018-01-21T04:30:13.069Z,80.00
2018-01-21T04:32:40.508Z,80.04
2018-01-21T04:35:07.980Z,79.78
2018-01-21T04:37:35.448Z,79.96
2018-01-21T04:40:02.896Z,79.95
2018-01-21T04:42:30.424Z,79.95
2018-01-21T04:44:57.905Z,80.11
2018-01-21T04:47:25.410Z,79.92
2018-01-21T04:49:52.897Z,79.84
2018-01-21T04:52:20.359Z,80.13
2018-01-21T04:54:47.818Z,80.04
2018-01-21T04:57:15.260Z,80.30
2018-01-21T04:59:47.754Z,80.49
2018-01-21T05:02:15.234Z,80.55
2018-01-21T05:04:42.754Z,80.64
2018-01-21T05:07:10.192Z,80.69
2018-01-21T05:09:37.647Z,80.65
2018-01-21T05:12:05.144Z,80.65
2018-01-21T05:14:32.618Z,80.88
2018-01-21T05:17:00.156Z,80.65
2018-01-21T05:19:27.614Z,80.89
2018-01-21T05:21:55.099Z,80.95
2018-01-21T05:24:22.592Z,80.98
2018-01-21T05:26:50.059Z,80.88
2018-01-21T05:29:17.559Z,80.62
2018-01-21T05:31:45.068Z,80.55
2018-01-21T05:34:12.564Z,80.53
2018-01-21T05:36:40.073Z,80.48
2018-01-21T05:39:07.580Z,80.41
2018-01-21T05:41:35.056Z,80.57
2018-01-21T05:44:02.566Z,80.69
2018-01-21T05:46:30.033Z,80.64
2018-01-21T05:48:57.509Z,80.75
2018-01-21T05:51:24.999Z,80.94
2018-01-21T05:53:52.437Z,80.86
2018-01-21T05:56:19.918Z,80.62
2018-01-21T05:58:47.507Z,80.58
2018-01-21T06:01:14.961Z,80.75
2018-01-21T06:03:42.486Z,80.73
2018-01-21T06:06:10.016Z,80.74
2018-01-21T06:08:37.473Z,80.62
2018-01-21T06:11:04.923Z,80.85
2018-01-21T06:13:32.437Z,80.75
2018-01-21T06:15:59.897Z,80.83
2018-01-21T06:18:27.352Z,81.07
2018-01-21T06:20:54.828Z,81.21
2018-01-21T06:23:22.285Z,81.17
2018-01-21T06:25:49.764Z,81.31
2018-01-21T06:28:17.234Z,81.46
2018-01-21T06:30:44.807Z,81.52
2018-01-21T06:33:12.256Z,81.71
2018-01-21T06:35:39.698Z,81.70
2018-01-21T06:38:07.187Z,81.93
2018-01-21T06:40:34.739Z,81.71
2018-01-21T06:43:02.243Z,81.49
2018-01-21T06:45:29.697Z,81.46
2018-01-21T06:47:57.735Z,81.50
2018-01-21T06:50:25.289Z,81.61
2018-01-21T06:52:52.775Z,81.92
2018-01-21T06:55:20.223Z,82.16
2018-01-21T06:57:47.689Z,82.17
2018-01-21T07:00:15.225Z,82.28
2018-01-21T07:02:42.667Z,82.10
2018-01-21T07:05:10.111Z,82.27
2018-01-21T07:07:37.627Z,82.32
2018-01-21T07:10:05.131Z,82.19
2018-01-21T07:12:32.623Z,82.09
2018-01-21T07:15:00.167Z,81.91
2018-01-21T07:17:27.648Z,81.83
2018-01-21T07:19:56.044Z,81.88
2018-01-21T07:22:23.522Z,82.04
2018-01-21T07:24:50.979Z,82.30
2018-01-21T07:27:18.760Z,82.32
2018-01-21T07:29:46.638Z,82.29
2018-01-21T07:32:14.090Z,82.24
2018-01-21T07:34:41.536Z,82.34
2018-01-21T07:37:09.031Z,82.54
2018-01-21T07:39:36.560Z,82.81
2018-01-21T07:42:04.038Z,83.02
2018-01-21T07:44:31.487Z,83.01
2018-01-21T07:46:58.960Z,82.96
2018-01-21T07:49:26.781Z,83.07
2018-01-21T07:51:54.320Z,82.95
2018-01-21T07:54:21.794Z,83.13
2018-01-21T07:56:49.252Z,82.98
2018-01-21T07:59:16.712Z,83.53
2018-01-21T08:01:44.172Z,83.55
2018-01-21T08:04:11.726Z,82.57
2018-01-21T08:06:39.224Z,81.34
2018-01-21T08:09:06.971Z,80.62
2018-01-21T08:11:34.445Z,80.21
2018-01-21T08:14:01.955Z,80.50
2018-01-21T08:16:29.466Z,80.90
2018-01-21T08:18:56.957Z,81.34
2018-01-21T08:21:24.449Z,81.57
2018-01-21T08:23:52.099Z,81.72
2018-01-21T08:26:19.639Z,82.08
2018-01-21T08:28:47.124Z,82.10
2018-01-21T08:31:14.640Z,81.94
2018-01-21T08:33:47.740Z,81.99
2018-01-21T08:36:20.667Z,82.09
2018-01-21T08:38:54.676Z,82.08
2018-01-21T08:44:25.959Z,82.14
2018-01-21T08:46:53.444Z,81.92
2018-01-21T08:49:21.070Z,81.88
2018-01-21T08:51:48.581Z,81.86
2018-01-21T08:54:16.055Z,81.53
2018-01-21T08:56:43.585Z,81.05
2018-01-21T08:59:11.144Z,81.09
2018-01-21T09:01:38.652Z,81.16
2018-01-21T09:04:06.124Z,80.90
2018-01-21T09:06:33.594Z,80.68
2018-01-21T09:09:01.391Z,80.36
2018-01-21T09:11:28.903Z,79.94
2018-01-21T09:13:56.437Z,80.00
2018-01-21T09:16:23.967Z,80.27
2018-01-21T09:18:51.416Z,80.16
2018-01-21T09:21:18.963Z,80.15
2018-01-21T09:23:46.482Z,80.80
2018-01-21T09:26:14.000Z,81.13
2018-01-21T09:28:41.575Z,81.49
2018-01-21T09:31:09.038Z,81.58
2018-01-21T09:33:36.524Z,81.25
2018-01-21T09:36:04.162Z,81.56
2018-01-21T09:38:31.638Z,81.25
2018-01-21T09:40:59.177Z,81.03
2018-01-21T09:43:26.709Z,80.88
2018-01-21T09:45:54.198Z,80.98
2018-01-21T09:48:21.659Z,81.31
2018-01-21T09:50:49.153Z,81.17
2018-01-21T09:53:16.705Z,81.29
2018-01-21T09:55:44.652Z,81.19
2018-01-21T09:58:12.120Z,81.26
2018-01-21T10:00:39.690Z,81.05
2018-01-21T10:03:07.195Z,80.99
2018-01-21T10:05:34.695Z,81.07
2018-01-21T10:08:02.254Z,80.65
2018-01-21T10:10:29.792Z,80.47
2018-01-21T10:12:57.351Z,80.74
2018-01-21T10:15:25.433Z,81.16
2018-01-21T10:17:53.042Z,81.62
2018-01-21T10:20:25.546Z,80.95
2018-01-21T10:22:53.094Z,80.92
2018-01-21T10:25:20.596Z,80.70
2018-01-21T10:27:48.114Z,80.26
2018-01-21T10:30:15.751Z,79.95
2018-01-21T10:32:43.209Z,79.80
2018-01-21T10:35:10.719Z,80.02
2018-01-21T10:37:38.233Z,79.52
2018-01-21T10:40:05.938Z,79.14
2018-01-21T10:42:33.442Z,78.72
2018-01-21T10:45:01.173Z,78.39
2018-01-21T10:47:28.662Z,77.66
2018-01-21T10:49:56.255Z,77.29
2018-01-21T10:52:23.872Z,77.00
2018-01-21T10:54:51.614Z,77.36
2018-01-21T10:57:19.084Z,77.46
2018-01-21T10:59:46.726Z,76.87
2018-01-21T11:02:14.223Z,77.16
2018-01-21T11:04:41.730Z,77.43
2018-01-21T11:07:09.243Z,77.54
2018-01-21T11:09:36.789Z,77.76
2018-01-21T11:12:04.308Z,77.88
2018-01-21T11:14:31.874Z,77.91
2018-01-21T11:16:59.475Z,77.79
2018-01-21T11:19:27.025Z,77.27
2018-01-21T11:21:54.555Z,76.21
2018-01-21T11:24:22.009Z,73.83
2018-01-21T11:26:49.573Z,72.36
2018-01-21T11:29:17.130Z,70.30
2018-01-21T11:31:44.645Z,68.83
2018-01-21T11:34:12.196Z,68.63
2018-01-21T11:36:39.750Z,69.28
2018-01-21T11:39:07.297Z,69.59
2018-01-21T11:41:34.829Z,70.36
2018-01-21T11:44:02.343Z,69.10
2018-01-21T11:46:29.882Z,67.91
2018-01-21T11:48:57.363Z,65.61
2018-01-21T11:51:24.885Z,65.71
2018-01-21T11:53:52.381Z,65.95
2018-01-21T11:56:19.955Z,66.73
2018-01-21T11:58:47.438Z,66.11
2018-01-21T12:01:14.902Z,64.42
2018-01-21T12:03:42.651Z,64.42
2018-01-21T12:06:10.166Z,64.13
2018-01-21T12:08:37.631Z,62.96
2018-01-21T12:11:05.214Z,62.83
2018-01-21T12:13:32.716Z,62.83
2018-01-21T12:16:00.209Z,63.43
2018-01-21T12:18:27.718Z,63.72
2018-01-21T12:20:55.297Z,64.08
2018-01-21T12:23:22.870Z,63.86
2018-01-21T12:25:50.427Z,64.13
2018-01-21T12:28:17.940Z,64.99
2018-01-21T12:30:45.442Z,65.91
2018-01-21T12:33:12.966Z,66.99
2018-01-21T12:35:40.483Z,67.99
2018-01-21T12:38:07.947Z,69.03
2018-01-21T12:40:40.389Z,68.63
2018-01-21T12:43:07.895Z,68.67
2018-01-21T12:45:35.434Z,68.78
2018-01-21T12:48:02.931Z,68.44
2018-01-21T12:50:30.585Z,67.25
2018-01-21T12:52:58.065Z,66.66
2018-01-21T12:55:25.558Z,65.80
2018-01-21T12:57:53.122Z,66.48
2018-01-21T13:00:20.608Z,67.19
2018-01-21T13:02:48.095Z,68.10
2018-01-21T13:05:15.582Z,68.65
2018-01-21T13:07:43.090Z,68.84
2018-01-21T13:10:10.624Z,68.85
2018-01-21T13:12:38.986Z,68.32
2018-01-21T13:15:06.745Z,67.31
2018-01-21T13:17:34.272Z,66.35
2018-01-21T13:20:02.706Z,66.63
2018-01-21T13:22:30.237Z,66.53
2018-01-21T13:24:57.807Z,66.99
2018-01-21T13:27:25.489Z,67.82
2018-01-21T13:29:53.061Z,68.51
2018-01-21T13:32:20.596Z,68.75
2018-01-21T13:34:48.104Z,69.47
2018-01-21T13:37:15.646Z,69.68
2018-01-21T13:39:43.836Z,69.91
2018-01-21T13:42:16.036Z,70.09
2018-01-21T13:44:43.513Z,70.49
2018-01-21T13:47:10.994Z,70.87
2018-01-21T13:49:38.451Z,71.52
2018-01-21T13:52:08.206Z,72.21
2018-01-21T13:54:35.836Z,72.88
2018-01-21T13:57:03.389Z,73.48
2018-01-21T13:59:30.942Z,73.87
2018-01-21T14:01:58.491Z,74.59
2018-01-21T14:04:26.047Z,74.95
2018-01-21T14:06:54.204Z,75.66
2018-01-21T14:09:21.821Z,75.98
2018-01-21T14:11:49.359Z,76.01
2018-01-21T14:14:17.111Z,76.33
2018-01-21T14:16:44.644Z,76.43
2018-01-21T14:19:12.151Z,76.59
2018-01-21T14:21:39.695Z,76.94
2018-01-21T14:24:07.354Z,77.21
2018-01-21T14:26:34.863Z,77.13
2018-01-21T14:29:02.426Z,77.09
2018-01-21T14:31:29.942Z,77.05
2018-01-21T14:33:57.478Z,76.60
2018-01-21T14:36:25.019Z,76.54
2018-01-21T14:38:52.553Z,76.73
2018-01-21T14:41:20.100Z,76.40
2018-01-21T14:43:47.607Z,76.39
2018-01-21T14:46:15.117Z,76.12
2018-01-21T14:48:43.396Z,76.29
2018-01-21T14:51:12.158Z,76.45
2018-01-21T14:53:39.692Z,76.76
2018-01-21T14:56:07.461Z,77.18
2018-01-21T14:58:34.956Z,77.11
2018-01-21T15:01:02.600Z,77.24
2018-01-21T15:03:30.147Z,77.58
2018-01-21T15:05:57.645Z,77.64
2018-01-21T15:08:25.733Z,77.67
2018-01-21T15:13:35.218Z,77.94
2018-01-21T15:16:02.849Z,78.09
2018-01-21T15:18:31.317Z,78.47
2018-01-21T15:20:58.851Z,78.65
2018-01-21T15:23:26.446Z,78.91
2018-01-21T15:25:54.008Z,79.05
2018-01-21T15:28:22.401Z,79.03
2018-01-21T15:30:51.689Z,79.02
2018-01-21T15:33:20.077Z,79.18
2018-01-21T15:35:47.583Z,79.57
2018-01-21T15:38:15.092Z,79.88
2018-01-21T15:40:47.525Z,80.18
2018-01-21T15:43:15.172Z,80.29
2018-01-21T15:45:44.005Z,80.50
2018-01-21T15:48:11.469Z,80.73
2018-01-21T15:50:39.002Z,80.76
2018-01-21T15:53:07.045Z,81.24
2018-01-21T15:55:34.519Z,81.03
2018-01-21T15:58:04.940Z,80.98
2018-01-21T16:00:34.639Z,80.91
2018-01-21T16:03:02.248Z,80.73
2018-01-21T16:05:29.845Z,80.63
2018-01-21T16:07:57.352Z,80.61
2018-01-21T16:10:24.948Z,80.53
2018-01-21T16:12:52.574Z,80.76
2018-01-21T16:15:20.954Z,80.73
2018-01-21T16:17:49.323Z,80.96
2018-01-21T16:20:16.911Z,80.91
2018-01-21T16:22:44.399Z,80.89
2018-01-21T16:25:11.941Z,80.74
2018-01-21T16:27:39.445Z,80.93
2018-01-21T16:30:07.014Z,80.76
2018-01-21T16:32:35.669Z,80.66
2018-01-21T16:35:03.122Z,81.26
2018-01-21T16:37:42.288Z,81.17
2018-01-21T16:40:09.747Z,81.50
2018-01-21T16:42:37.238Z,81.73
2018-01-21T16:45:04.790Z,82.01
2018-01-21T16:47:32.307Z,81.79
2018-01-21T16:49:59.781Z,81.88
2018-01-21T16:52:27.336Z,82.11
2018-01-21T16:54:54.898Z,81.95
2018-01-21T16:57:22.530Z,81.88
2018-01-21T16:59:50.010Z,82.85
2018-01-21T17:02:17.510Z,82.44
2018-01-21T17:04:45.060Z,82.30
2018-01-21T17:07:12.736Z,82.20
2018-01-21T17:09:40.391Z,82.12
2018-01-21T17:12:07.897Z,82.49
2018-01-21T17:14:35.419Z,82.04
2018-01-21T17:17:02.895Z,81.85
2018-01-21T17:19:30.383Z,82.31
2018-01-21T17:21:57.905Z,82.58
2018-01-21T17:24:25.404Z,82.95
2018-01-21T17:26:52.945Z,82.21
2018-01-21T17:29:21.385Z,82.11
2018-01-21T17:31:48.905Z,82.16
2018-01-21T17:34:16.804Z,82.26
2018-01-21T17:36:44.352Z,82.23
2018-01-21T17:39:11.924Z,82.42
2018-01-21T17:41:39.388Z,82.33
2018-01-21T17:44:06.874Z,82.72
2018-01-21T17:46:34.423Z,82.42
2018-01-21T17:49:02.212Z,83.06
2018-01-21T17:51:29.848Z,83.83
2018-01-21T17:53:57.415Z,83.28
2018-01-21T17:56:24.932Z,83.08
2018-01-21T17:58:52.503Z,83.58
2018-01-21T18:01:20.101Z,83.32
2018-01-21T18:03:47.700Z,82.96
2018-01-21T18:06:15.214Z,83.91
2018-01-21T18:08:43.065Z,83.24
2018-01-21T18:11:10.641Z,83.56
2018-01-21T18:13:38.152Z,83.49
2018-01-21T18:16:05.668Z,84.03
2018-01-21T18:18:33.224Z,83.34
2018-01-21T18:21:00.684Z,83.13
2018-01-21T18:23:28.252Z,83.03
2018-01-21T18:25:55.737Z,83.17
2018-01-21T18:28:23.366Z,82.48
2018-01-21T18:30:50.986Z,82.16
2018-01-21T18:33:18.566Z,81.74
2018-01-21T18:35:46.551Z,81.62
2018-01-21T18:38:14.152Z,81.70
2018-01-21T18:40:41.700Z,81.96
2018-01-21T18:43:09.310Z,81.93
2018-01-21T18:45:37.055Z,81.95
2018-01-21T18:48:04.587Z,82.91
2018-01-21T18:50:32.155Z,83.19
2018-01-21T18:52:59.698Z,83.08
2018-01-21T18:55:27.243Z,83.02
2018-01-21T18:57:54.778Z,83.37
2018-01-21T19:00:22.345Z,82.59
2018-01-21T19:02:49.888Z,82.62
2018-01-21T19:05:17.542Z,83.13
2018-01-21T19:07:45.371Z,83.28
2018-01-21T19:10:12.875Z,82.62
2018-01-21T19:12:40.419Z,82.23
2018-01-21T19:15:08.059Z,82.48
2018-01-21T19:17:35.578Z,82.87
2018-01-21T19:20:03.168Z,82.86
2018-01-21T19:22:30.707Z,83.73
2018-01-21T19:24:58.300Z,83.55
2018-01-21T19:27:25.876Z,84.09
2018-01-21T19:29:53.727Z,83.57
2018-01-21T19:32:21.369Z,83.51
2018-01-21T19:34:48.953Z,83.59
2018-01-21T19:37:16.647Z,83.73
2018-01-21T19:39:54.823Z,83.47
2018-01-21T19:45:23.394Z,82.97
2018-01-21T19:47:51.023Z,82.79
2018-01-21T19:50:18.699Z,82.87
2018-01-21T19:52:47.157Z,83.21
2018-01-21T19:55:14.660Z,84.21
2018-01-21T19:57:42.453Z,84.57
2018-01-21T20:00:10.956Z,84.74
2018-01-21T20:02:38.561Z,84.21
2018-01-21T20:05:06.156Z,83.85
2018-01-21T20:07:33.751Z,84.56
2018-01-21T20:10:01.299Z,84.80
2018-01-21T20:12:28.827Z,84.50
2018-01-21T20:14:56.305Z,84.30
2018-01-21T20:17:24.075Z,83.94
2018-01-21T20:19:52.255Z,83.77
2018-01-21T20:22:19.801Z,83.91
2018-01-21T20:24:47.288Z,83.97
2018-01-21T20:27:14.819Z,83.39
2018-01-21T20:29:42.435Z,83.99
2018-01-21T20:32:09.999Z,84.11
2018-01-21T20:34:37.564Z,83.86
2018-01-21T20:37:05.161Z,83.77
2018-01-21T20:39:32.758Z,84.07
2018-01-21T20:42:00.252Z,84.39
2018-01-21T20:44:27.786Z,83.81
2018-01-21T20:46:55.307Z,83.76
2018-01-21T20:49:22.818Z,83.90
2018-01-21T20:51:55.857Z,84.41
2018-01-21T20:54:29.674Z,84.37
2018-01-21T20:56:57.285Z,84.45
2018-01-21T20:59:24.805Z,83.41
2018-01-21T21:01:52.336Z,83.87
2018-01-21T21:04:19.871Z,84.05
2018-01-21T21:06:47.759Z,83.68
2018-01-21T21:09:15.240Z,83.74
2018-01-21T21:11:42.763Z,83.69
2018-01-21T21:14:10.331Z,84.06
2018-01-21T21:16:37.975Z,82.92
2018-01-21T21:19:05.496Z,83.69
2018-01-21T21:21:33.130Z,83.07
2018-01-21T21:24:00.655Z,83.20
2018-01-21T21:26:28.151Z,83.27
2018-01-21T21:28:55.736Z,82.78
2018-01-21T21:31:23.264Z,83.13
2018-01-21T21:33:50.803Z,83.89
2018-01-21T21:36:18.315Z,83.00
2018-01-21T21:38:45.817Z,83.31
2018-01-21T21:41:13.311Z,82.86
2018-01-21T21:43:40.800Z,82.78
2018-01-21T21:46:08.287Z,82.78
2018-01-21T21:48:35.836Z,82.78
2018-01-21T21:51:05.076Z,82.80
2018-01-21T21:53:32.594Z,82.54
2018-01-21T21:56:00.173Z,82.44
2018-01-21T21:58:27.810Z,83.23
2018-01-21T22:01:05.901Z,83.32
2018-01-21T22:03:34.265Z,83.28
2018-01-21T22:06:01.787Z,83.25
2018-01-21T22:08:31.111Z,84.10
2018-01-21T22:10:58.765Z,83.54
2018-01-21T22:13:26.512Z,83.08
2018-01-21T22:15:54.449Z,82.76
2018-01-21T22:18:22.036Z,83.01
2018-01-21T22:20:55.357Z,83.27
2018-01-21T22:23:23.442Z,82.87
2018-01-21T22:25:51.194Z,83.42
2018-01-21T22:28:18.839Z,83.70
2018-01-21T22:31:06.857Z,83.55
2018-01-21T22:33:34.848Z,83.91
2018-01-21T22:36:02.551Z,83.98
2018-01-21T22:38:30.377Z,84.07
2018-01-21T22:40:58.044Z,83.82
2018-01-21T22:43:25.525Z,84.15
2018-01-21T22:45:53.086Z,83.92
2018-01-21T22:48:20.725Z,84.25
2018-01-21T22:50:48.244Z,84.66
2018-01-21T22:53:15.775Z,84.10
2018-01-21T22:55:43.367Z,84.03
2018-01-21T22:58:10.912Z,84.09
2018-01-21T23:00:38.510Z,83.54
2018-01-21T23:03:06.348Z,84.03
2018-01-21T23:05:34.058Z,83.49
2018-01-21T23:08:02.061Z,83.68
2018-01-21T23:10:29.686Z,83.47
2018-01-21T23:12:57.323Z,83.26
2018-01-21T23:15:24.911Z,82.89
2018-01-21T23:17:52.399Z,82.69
2018-01-21T23:20:31.885Z,82.22
2018-01-21T23:23:01.147Z,82.85
2018-01-21T23:25:28.750Z,82.50
2018-01-21T23:27:56.230Z,83.30
2018-01-21T23:30:24.238Z,82.77
2018-01-21T23:32:52.271Z,82.87
2018-01-21T23:35:20.093Z,83.25
2018-01-21T23:37:47.844Z,83.86
2018-01-21T23:40:15.312Z,83.73
2018-01-21T23:42:42.790Z,83.40
2018-01-21T23:45:10.257Z,83.18
2018-01-21T23:47:37.772Z,83.22
2018-01-21T23:50:05.267Z,83.54
2018-01-21T23:52:32.796Z,83.57
2018-01-21T23:55:00.326Z,83.28
2018-01-21T23:57:27.799Z,83.61
2018-01-21T23:59:55.311Z,83.22
